Latest Weather Observations for Hay Point

IDQ60801

Issued at 3:02 pm EST Saturday 28 February 2015 (issued every 30 minutes, with the page automatically refreshed every 10 minutes)

About weather observations | Map of weather stations | Latest weather observations for QLD | Other Formats
Station Details ID: 033317 Name: HAY POINT Lat: -21.29 Lon: 149.30 Height: 7.0 m
Data from the previous 72 hours. | See also: Recent months for locations in Queensland
Date/Time
EST
Temp
°C
App
Temp
°C
Dew
Point
Rel
Hum
%
Delta-T
°C
Wind Press
QNH
hPa
Press
MSL
hPa
Rain
since 9 am
mm
Dir
 
Spd
km/h
Gust
km/h
Spd
kts
Gust
kts
28/03:00pm - - - - - ENE 24 26 13 14 - - -
28/02:30pm - - - - - ENE 22 26 12 14 - - -
28/02:00pm - - - - - ENE 24 28 13 15 - - -
28/01:30pm - - - - - ENE 20 24 11 13 - - -
28/01:00pm - - - - - ENE 20 26 11 14 - - -
28/12:30pm - - - - - E 19 22 10 12 - - -
28/12:00pm - - - - - E 17 19 9 10 - - -
28/11:30am - - - - - ESE 15 17 8 9 - - -
28/11:00am - - - - - E 13 15 7 8 - - -
28/10:30am - - - - - ESE 13 17 7 9 - - -
28/10:00am - - - - - SE 11 15 6 8 - - -
28/09:30am - - - - - ESE 7 11 4 6 - - -
28/09:00am - - - - - WSW 4 9 2 5 - - -
28/08:30am - - - - - W 7 9 4 5 - - -
28/08:00am - - - - - W 13 15 7 8 - - -
28/07:30am - - - - - SW 7 9 4 5 - - -
28/07:00am - - - - - WSW 7 9 4 5 - - -
28/06:30am - - - - - WSW 6 9 3 5 - - -
28/06:00am - - - - - WSW 11 11 6 6 - - -
28/05:30am - - - - - WNW 7 9 4 5 - - -
28/05:00am - - - - - NNE 15 19 8 10 - - -
28/04:30am - - - - - N 17 20 9 11 - - -
28/04:00am - - - - - NNE 19 26 10 14 - - -
28/03:30am - - - - - N 19 22 10 12 - - -
28/03:00am - - - - - N 19 24 10 13 - - -
28/02:30am - - - - - NNE 17 20 9 11 - - -
28/02:00am - - - - - N 17 20 9 11 - - -
28/01:30am - - - - - NNE 17 20 9 11 - - -
28/01:00am - - - - - NNE 19 20 10 11 - - -
28/12:30am - - - - - NNE 17 20 9 11 - - -
28/12:00am - - - - - NNE 19 22 10 12 - - -
 
Date/Time
EST
Temp
°C
App
Temp
°C
Dew
Point
Rel
Hum
%
Delta-T
°C
Wind Press
QNH
hPa
Press
MSL
hPa
Rain
since 9 am
mm
Dir
 
Spd
km/h
Gust
km/h
Spd
kts
Gust
kts
27/11:30pm - - - - - NNE 17 20 9 11 - - -
27/11:00pm - - - - - N 17 19 9 10 - - -
27/10:30pm - - - - - NNE 15 19 8 10 - - -
27/10:00pm - - - - - NNE 17 20 9 11 - - -
27/09:30pm - - - - - NNE 17 20 9 11 - - -
27/09:00pm - - - - - NNE 20 24 11 13 - - -
27/08:30pm - - - - - NE 20 26 11 14 - - -
27/08:00pm - - - - - NE 15 19 8 10 - - -
27/07:30pm - - - - - NE 24 28 13 15 - - -
27/07:00pm - - - - - NE 20 26 11 14 - - -
27/06:30pm - - - - - NE 22 26 12 14 - - -
27/06:00pm - - - - - ENE 24 28 13 15 - - -
27/05:30pm - - - - - ENE 24 28 13 15 - - -
27/05:00pm - - - - - ENE 30 33 16 18 - - -
27/04:30pm - - - - - ENE 28 33 15 18 - - -
27/04:00pm - - - - - ENE 28 30 15 16 - - -
27/03:30pm - - - - - ENE 26 30 14 16 - - -
27/03:00pm - - - - - E 24 26 13 14 - - -
27/02:30pm - - - - - E 24 28 13 15 - - -
27/02:00pm - - - - - E 22 26 12 14 - - -
27/01:30pm - - - - - ENE 20 26 11 14 - - -
27/01:00pm - - - - - E 22 26 12 14 - - -
27/12:30pm - - - - - E 20 22 11 12 - - -
27/12:00pm - - - - - E 19 20 10 11 - - -
27/11:30am - - - - - E 17 22 9 12 - - -
27/11:00am - - - - - E 15 17 8 9 - - -
27/10:30am - - - - - NE 11 13 6 7 - - -
27/10:00am - - - - - NE 11 11 6 6 - - -
27/09:30am - - - - - NNW 4 9 2 5 - - -
27/09:00am - - - - - NNW 9 13 5 7 - - -
27/08:30am - - - - - CALM 0 7 0 4 - - -
27/08:00am - - - - - WSW 7 9 4 5 - - -
27/07:30am - - - - - WSW 11 11 6 6 - - -
27/07:00am - - - - - WSW 13 13 7 7 - - -
27/06:30am - - - - - WSW 13 15 7 8 - - -
27/06:00am - - - - - WSW 15 19 8 10 - - -
27/05:30am - - - - - W 13 15 7 8 - - -
27/05:00am - - - - - W 11 13 6 7 - - -
27/04:30am - - - - - WNW 11 15 6 8 - - -
27/04:00am - - - - - NNE 13 17 7 9 - - -
27/03:30am - - - - - NNE 17 20 9 11 - - -
27/03:00am - - - - - NE 17 20 9 11 - - -
27/02:30am - - - - - NNE 15 19 8 10 - - -
27/02:00am - - - - - NNE 15 17 8 9 - - -
27/01:30am - - - - - NNE 15 19 8 10 - - -
27/01:00am - - - - - NE 11 13 6 7 - - -
27/12:30am - - - - - NE 13 17 7 9 - - -
27/12:00am - - - - - NE 15 19 8 10 - - -
 
Date/Time
EST
Temp
°C
App
Temp
°C
Dew
Point
Rel
Hum
%
Delta-T
°C
Wind Press
QNH
hPa
Press
MSL
hPa
Rain
since 9 am
mm
Dir
 
Spd
km/h
Gust
km/h
Spd
kts
Gust
kts
26/11:30pm - - - - - NE 15 19 8 10 - - -
26/11:00pm - - - - - ENE 19 22 10 12 - - -
26/10:30pm - - - - - E 20 24 11 13 - - -
26/10:00pm - - - - - ENE 20 26 11 14 - - -
26/09:30pm - - - - - ENE 22 28 12 15 - - -
26/09:00pm - - - - - ENE 20 26 11 14 - - -
26/08:30pm - - - - - ENE 22 26 12 14 - - -
26/08:00pm - - - - - ENE 22 26 12 14 - - -
26/07:30pm - - - - - ENE 20 26 11 14 - - -
26/07:00pm - - - - - ENE 20 26 11 14 - - -
26/06:30pm - - - - - E 20 24 11 13 - - -
26/06:00pm - - - - - E 19 22 10 12 - - -
26/05:30pm - - - - - E 19 22 10 12 - - -
26/05:00pm - - - - - E 20 24 11 13 - - -
26/04:30pm - - - - - E 20 26 11 14 - - -
26/04:00pm - - - - - E 22 26 12 14 - - -
26/03:30pm - - - - - E 24 28 13 15 - - -
26/03:00pm - - - - - ESE 26 28 14 15 - - -
26/02:30pm - - - - - E 26 30 14 16 - - -
26/02:00pm - - - - - ESE 28 30 15 16 - - -
26/01:30pm - - - - - ESE 28 32 15 17 - - -
26/01:00pm - - - - - ESE 26 30 14 16 - - -
26/12:30pm - - - - - ESE 26 30 14 16 - - -
26/12:00pm - - - - - SE 24 32 13 17 - - -
26/11:30am - - - - - SE 20 28 11 15 - - -
26/11:00am - - - - - SSE 19 26 10 14 - - -
26/10:30am - - - - - SSE 20 28 11 15 - - -
26/10:00am - - - - - SSE 22 26 12 14 - - -
26/09:30am - - - - - SSE 20 28 11 15 - - -
26/09:00am - - - - - SSE 20 28 11 15 - - -
26/08:30am - - - - - S 17 24 9 13 - - -
26/08:00am - - - - - SSW 15 19 8 10 - - -
26/07:30am - - - - - SW 17 24 9 13 - - -
26/07:00am - - - - - SSE 24 30 13 16 - - -
26/06:30am - - - - - SE 19 26 10 14 - - -
26/06:00am - - - - - SE 22 30 12 16 - - -
26/05:30am - - - - - SE 24 32 13 17 - - -
26/05:00am - - - - - ESE 28 32 15 17 - - -
26/04:30am - - - - - ESE 26 33 14 18 - - -
26/04:00am - - - - - ESE 30 33 16 18 - - -
26/03:30am - - - - - ESE 28 35 15 19 - - -
26/03:00am - - - - - ESE 33 39 18 21 - - -
26/02:30am - - - - - ESE 32 37 17 20 - - -
26/02:00am - - - - - ESE 32 35 17 19 - - -
26/01:30am - - - - - ESE 30 35 16 19 - - -
26/01:00am - - - - - ESE 30 37 16 20 - - -
26/12:30am - - - - - ESE 32 37 17 20 - - -
26/12:00am - - - - - SE 19 28 10 15 - - -
 
Date/Time
EST
Temp
°C
App
Temp
°C
Dew
Point
Rel
Hum
%
Delta-T
°C
Wind Press
QNH
hPa
Press
MSL
hPa
Rain
since 9 am
mm
Dir
 
Spd
km/h
Gust
km/h
Spd
kts
Gust
kts
25/11:30pm - - - - - ESE 24 28 13 15 - - -
25/11:00pm - - - - - ESE 26 32 14 17 - - -
25/10:30pm - - - - - ESE 24 32 13 17 - - -
25/10:00pm - - - - - ESE 22 28 12 15 - - -
25/09:30pm - - - - - ESE 24 30 13 16 - - -
25/09:00pm - - - - - ESE 24 28 13 15 - - -
25/08:30pm - - - - - ESE 32 35 17 19 - - -
25/08:00pm - - - - - ESE 28 33 15 18 - - -
25/07:30pm - - - - - ESE 32 37 17 20 - - -
25/07:00pm - - - - - ESE 37 43 20 23 - - -
25/06:30pm - - - - - ESE 33 37 18 20 - - -
25/06:00pm - - - - - ESE 32 37 17 20 - - -
25/05:30pm - - - - - E 30 33 16 18 - - -
25/05:00pm - - - - - E 26 30 14 16 - - -
25/04:30pm - - - - - SE 22 30 12 16 - - -
25/04:00pm - - - - - ESE 22 28 12 15 - - -
25/03:30pm - - - - - ESE 28 32 15 17 - - -

Other Formats:

Comma delimited format used in spreadsheet applications
http://www.bom.gov.au/fwo/IDQ60801/IDQ60801.99367.axf

JavaScript Object Notation format (JSON) in row-major order
http://www.bom.gov.au/fwo/IDQ60801/IDQ60801.99367.json